Terminal Aerodrome Forecast
Issued by NWS

Home | Current Version | Previous Version | Text Only | Print | Product List | Glossary On
Versions: 1 2 3 4 5 6 7 8 9 10 11 12 13 14 15
000
FTUS43 KFGF 281700
TAFTVF
TAF
KTVF 281737Z 2818/2918 18017G25KT P6SM SCT200
     FM290500 18020G30KT P6SM -SHRA BKN020
     FM290800 18020G30KT P6SM VCSH OVC008
     FM291000 30020G30KT P6SM -SHRA OVC008
     FM291300 33025G35KT P6SM OVC015
      AMD LTD TO CLD VIS AND WIND=

USA.gov is the U.S. government's official web portal to all federal, state and local government web resources and services.